createdAt,value
2022-07-25T00:00:31.543Z,23.62
2022-07-25T00:01:31.583Z,23.61
2022-07-25T00:02:31.517Z,23.68
2022-07-25T00:03:31.524Z,23.53
2022-07-25T00:04:31.535Z,23.53
2022-07-25T00:05:37.389Z,23.58
2022-07-25T00:06:32.474Z,23.61
2022-07-25T00:07:31.471Z,23.53
2022-07-25T00:08:31.476Z,23.45
2022-07-25T00:09:31.449Z,23.38
2022-07-25T00:10:31.437Z,23.38
2022-07-25T00:11:31.420Z,23.38
2022-07-25T00:12:31.407Z,23.23
2022-07-25T00:13:31.430Z,23.29
2022-07-25T00:14:31.387Z,23.34
2022-07-25T00:15:31.385Z,23.23
2022-07-25T00:16:31.455Z,23.17
2022-07-25T00:17:31.361Z,23.24
2022-07-25T00:18:31.346Z,23.11
2022-07-25T00:19:31.349Z,23.14
2022-07-25T00:20:31.327Z,23.05
2022-07-25T00:21:31.319Z,23.15
2022-07-25T00:22:31.302Z,23.05
2022-07-25T00:23:31.289Z,23.01
2022-07-25T00:24:31.295Z,23.08
2022-07-25T00:25:31.277Z,22.96
2022-07-25T00:26:32.039Z,22.96
2022-07-25T00:27:31.252Z,22.97
2022-07-25T00:28:31.240Z,22.92
2022-07-25T00:29:31.230Z,22.83
2022-07-25T00:30:31.223Z,22.84
2022-07-25T00:31:31.253Z,22.83
2022-07-25T00:32:31.189Z,22.87
2022-07-25T00:33:31.188Z,22.90
2022-07-25T00:34:31.171Z,22.82
2022-07-25T00:35:31.180Z,22.82
2022-07-25T00:36:31.150Z,22.82
2022-07-25T00:37:31.142Z,22.75
2022-07-25T00:38:31.122Z,22.78
2022-07-25T00:39:31.120Z,22.72
2022-07-25T00:40:31.116Z,22.75
2022-07-25T00:41:31.099Z,22.72
2022-07-25T00:42:31.087Z,22.75
2022-07-25T00:43:31.077Z,22.71
2022-07-25T00:44:31.058Z,22.74
2022-07-25T00:45:31.055Z,22.71
2022-07-25T00:46:31.091Z,22.71
2022-07-25T00:47:31.034Z,22.77
2022-07-25T00:48:31.080Z,22.80
2022-07-25T00:49:31.011Z,22.89
2022-07-25T00:50:31.000Z,22.78
2022-07-25T00:51:31.006Z,22.83
2022-07-25T00:52:30.971Z,22.74
2022-07-25T00:53:30.959Z,22.80
2022-07-25T00:54:30.947Z,22.84
2022-07-25T00:55:30.947Z,22.80
2022-07-25T00:56:30.953Z,22.84
2022-07-25T00:57:30.916Z,22.83
2022-07-25T00:58:30.914Z,22.74
2022-07-25T00:59:30.896Z,22.74
2022-07-25T01:00:30.895Z,22.74
2022-07-25T01:01:30.934Z,22.82
2022-07-25T01:02:30.972Z,22.82
2022-07-25T01:03:30.855Z,22.71
2022-07-25T01:04:30.845Z,22.65
2022-07-25T01:05:30.826Z,22.77
2022-07-25T01:06:30.814Z,22.65
2022-07-25T01:07:30.825Z,22.75
2022-07-25T01:08:30.801Z,22.78
2022-07-25T01:09:30.790Z,22.71
2022-07-25T01:10:30.777Z,22.75
2022-07-25T01:11:30.768Z,22.68
2022-07-25T01:12:30.770Z,22.72
2022-07-25T01:13:30.751Z,22.69
2022-07-25T01:14:30.727Z,22.67
2022-07-25T01:15:30.800Z,22.69
2022-07-25T01:16:30.713Z,22.78
2022-07-25T01:17:30.734Z,22.69
2022-07-25T01:18:30.689Z,22.62
2022-07-25T01:19:30.678Z,22.67
2022-07-25T01:20:30.668Z,22.74
2022-07-25T01:21:30.650Z,22.67
2022-07-25T01:22:30.646Z,22.68
2022-07-25T01:23:30.650Z,22.75
2022-07-25T01:24:30.619Z,22.72
2022-07-25T01:25:30.605Z,22.69
2022-07-25T01:26:30.594Z,22.64
2022-07-25T01:27:30.591Z,22.59
2022-07-25T01:28:30.597Z,22.64
2022-07-25T01:29:30.561Z,22.60
2022-07-25T01:30:30.561Z,22.56
2022-07-25T01:31:30.596Z,22.52
2022-07-25T01:32:30.527Z,22.60
2022-07-25T01:33:30.547Z,22.65
2022-07-25T01:34:30.512Z,22.53
2022-07-25T01:35:30.492Z,22.53
2022-07-25T01:36:30.497Z,22.60
2022-07-25T01:37:30.479Z,22.52
2022-07-25T01:38:30.496Z,22.59
2022-07-25T01:39:30.457Z,22.56
2022-07-25T01:40:30.443Z,22.50
2022-07-25T01:41:30.428Z,22.53
2022-07-25T01:42:30.427Z,22.50
2022-07-25T01:43:30.415Z,22.49
2022-07-25T01:44:30.422Z,22.62
2022-07-25T01:45:30.390Z,22.46
2022-07-25T01:46:30.466Z,22.46
2022-07-25T01:47:30.368Z,22.44
2022-07-25T01:48:30.417Z,22.41
2022-07-25T01:49:30.351Z,22.52
2022-07-25T01:50:30.335Z,22.37
2022-07-25T01:51:30.326Z,22.38
2022-07-25T01:52:30.315Z,22.46
2022-07-25T01:53:30.301Z,22.46
2022-07-25T01:54:30.317Z,22.37
2022-07-25T01:55:30.273Z,22.34
2022-07-25T01:56:31.999Z,22.34
2022-07-25T01:57:31.093Z,22.38
2022-07-25T01:58:30.239Z,22.32
2022-07-25T01:59:30.249Z,22.29
2022-07-25T02:00:30.232Z,22.31
2022-07-25T02:01:30.236Z,22.28
2022-07-25T02:02:30.203Z,22.20
2022-07-25T02:03:30.189Z,22.27
2022-07-25T02:04:30.250Z,22.22
2022-07-25T02:05:30.179Z,22.23
2022-07-25T02:06:30.162Z,22.32
2022-07-25T02:07:30.144Z,22.27
2022-07-25T02:08:30.130Z,22.29
2022-07-25T02:09:30.126Z,22.31
2022-07-25T02:10:30.140Z,22.31
2022-07-25T02:11:30.102Z,22.20
2022-07-25T02:12:30.095Z,22.28
2022-07-25T02:13:30.077Z,22.12
2022-07-25T02:14:30.073Z,22.22
2022-07-25T02:15:30.063Z,22.19
2022-07-25T02:16:30.103Z,22.14
2022-07-25T02:17:30.150Z,22.14
2022-07-25T02:18:30.032Z,22.14
2022-07-25T02:19:30.014Z,22.16
2022-07-25T02:20:30.005Z,22.10
2022-07-25T02:21:30.000Z,22.06
2022-07-25T02:22:29.981Z,22.12
2022-07-25T02:23:29.968Z,22.19
2022-07-25T02:24:29.959Z,22.13
2022-07-25T02:25:29.940Z,22.19
2022-07-25T02:26:29.954Z,22.13
2022-07-25T02:27:29.923Z,22.10
2022-07-25T02:28:29.918Z,22.04
2022-07-25T02:29:29.894Z,22.13
2022-07-25T02:30:29.928Z,22.04
2022-07-25T02:31:29.875Z,22.06
2022-07-25T02:32:29.878Z,22.09
2022-07-25T02:33:29.857Z,22.02
2022-07-25T02:34:29.847Z,21.98
2022-07-25T02:35:29.843Z,22.01
2022-07-25T02:36:29.816Z,21.95
2022-07-25T02:37:29.818Z,21.90
2022-07-25T02:38:29.800Z,22.02
2022-07-25T02:39:29.788Z,21.90
2022-07-25T02:40:29.782Z,21.94
2022-07-25T02:41:29.766Z,21.90
2022-07-25T02:42:29.777Z,21.88
2022-07-25T02:43:29.743Z,21.90
2022-07-25T02:44:29.733Z,21.94
2022-07-25T02:45:29.715Z,21.88
2022-07-25T02:46:29.795Z,21.90
2022-07-25T02:47:29.691Z,21.76
2022-07-25T02:48:29.771Z,21.81
2022-07-25T02:49:29.677Z,21.78
2022-07-25T02:50:29.666Z,21.85
2022-07-25T02:51:29.657Z,21.97
2022-07-25T02:52:29.644Z,21.94
2022-07-25T02:53:54.904Z,21.76
2022-07-25T02:54:30.621Z,21.82
2022-07-25T02:55:29.610Z,21.92
2022-07-25T02:56:30.170Z,21.79
2022-07-25T02:57:29.584Z,21.79
2022-07-25T02:58:29.583Z,21.81
2022-07-25T02:59:32.411Z,21.81
2022-07-25T03:00:29.551Z,21.85
2022-07-25T03:01:29.612Z,21.78
2022-07-25T03:02:29.528Z,21.79
2022-07-25T03:03:29.510Z,21.83
2022-07-25T03:04:29.650Z,21.79
2022-07-25T03:05:29.499Z,21.66
2022-07-25T03:06:29.479Z,21.67
2022-07-25T03:07:29.464Z,21.74
2022-07-25T03:08:29.463Z,21.67
2022-07-25T03:09:29.463Z,21.66
2022-07-25T03:10:29.443Z,21.63
2022-07-25T03:11:29.428Z,21.61
2022-07-25T03:12:29.415Z,21.61
2022-07-25T03:13:29.398Z,21.54
2022-07-25T03:14:29.404Z,21.63
2022-07-25T03:15:29.385Z,21.56
2022-07-25T03:16:29.434Z,21.64
2022-07-25T03:17:29.357Z,21.63
2022-07-25T03:18:29.346Z,21.51
2022-07-25T03:19:29.352Z,21.57
2022-07-25T03:20:29.327Z,21.50
2022-07-25T03:21:29.316Z,21.61
2022-07-25T03:22:29.299Z,21.59
2022-07-25T03:23:29.292Z,21.60
2022-07-25T03:24:29.298Z,21.54
2022-07-25T03:25:29.263Z,21.46
2022-07-25T03:26:29.262Z,21.54
2022-07-25T03:27:29.252Z,21.44
2022-07-25T03:28:29.234Z,21.45
2022-07-25T03:29:29.218Z,21.41
2022-07-25T03:30:29.227Z,21.42
2022-07-25T03:31:29.267Z,21.41
2022-07-25T03:32:29.201Z,21.48
2022-07-25T03:33:29.182Z,21.42
2022-07-25T03:34:29.164Z,21.42
2022-07-25T03:35:29.167Z,21.44
2022-07-25T03:36:29.140Z,21.38
2022-07-25T03:37:29.128Z,21.51
2022-07-25T03:38:29.116Z,21.51
2022-07-25T03:39:29.125Z,21.41
2022-07-25T03:40:29.113Z,21.42
2022-07-25T03:41:29.090Z,21.39
2022-07-25T03:42:32.246Z,21.36
2022-07-25T03:43:30.067Z,21.45
2022-07-25T03:44:29.050Z,21.32
2022-07-25T03:45:29.116Z,21.36
2022-07-25T03:46:29.148Z,21.30
2022-07-25T03:47:29.025Z,21.24
2022-07-25T03:48:29.053Z,21.35
2022-07-25T03:49:29.006Z,21.32
2022-07-25T03:50:28.999Z,21.41
2022-07-25T03:51:28.994Z,21.29
2022-07-25T03:52:28.970Z,21.19
2022-07-25T03:53:28.950Z,21.27
2022-07-25T03:54:28.947Z,21.39
2022-07-25T03:55:28.946Z,21.27
2022-07-25T03:56:28.957Z,21.21
2022-07-25T03:57:28.904Z,21.26
2022-07-25T03:58:28.912Z,21.23
2022-07-25T03:59:28.888Z,21.21
2022-07-25T04:00:28.881Z,21.27
2022-07-25T04:01:28.966Z,21.09
2022-07-25T04:02:28.961Z,21.19
2022-07-25T04:03:28.844Z,21.29
2022-07-25T04:04:28.826Z,21.23
2022-07-25T04:05:28.821Z,21.19
2022-07-25T04:06:28.828Z,21.30
2022-07-25T04:07:28.795Z,21.20
2022-07-25T04:08:28.781Z,21.19
2022-07-25T04:09:33.464Z,21.20
2022-07-25T04:10:28.767Z,21.27
2022-07-25T04:11:28.750Z,21.26
2022-07-25T04:12:28.749Z,21.19
2022-07-25T04:13:28.732Z,21.24
2022-07-25T04:14:28.720Z,21.29
2022-07-25T04:15:28.701Z,21.23
2022-07-25T04:16:28.715Z,21.21
2022-07-25T04:17:28.695Z,21.26
2022-07-25T04:18:29.005Z,21.27
2022-07-25T04:19:28.974Z,21.32
2022-07-25T04:20:28.656Z,21.24
2022-07-25T04:21:28.646Z,21.27
2022-07-25T04:22:28.641Z,21.26
2022-07-25T04:23:28.620Z,21.38
2022-07-25T04:24:28.603Z,21.38
2022-07-25T04:25:28.597Z,21.38
2022-07-25T04:26:28.594Z,21.41
2022-07-25T04:27:28.596Z,21.30
2022-07-25T04:28:28.559Z,21.44
2022-07-25T04:29:28.556Z,21.44
2022-07-25T04:30:28.536Z,21.51
2022-07-25T04:31:28.561Z,21.50
2022-07-25T04:32:28.530Z,21.53
2022-07-25T04:33:28.503Z,21.64
2022-07-25T04:34:28.498Z,21.63
2022-07-25T04:35:28.484Z,21.66
2022-07-25T04:36:28.468Z,21.67
2022-07-25T04:37:28.482Z,21.67
2022-07-25T04:38:28.450Z,21.78
2022-07-25T04:39:28.445Z,21.82
2022-07-25T04:40:28.424Z,21.88
2022-07-25T04:41:28.417Z,21.91
2022-07-25T04:42:28.429Z,21.88
2022-07-25T04:43:28.409Z,21.99
2022-07-25T04:44:28.380Z,21.85
2022-07-25T04:45:28.414Z,21.98
2022-07-25T04:46:28.369Z,22.02
2022-07-25T04:47:28.342Z,21.95
2022-07-25T04:48:28.389Z,22.07
2022-07-25T04:49:28.325Z,22.14
2022-07-25T04:50:28.315Z,22.16
2022-07-25T04:51:28.308Z,22.19
2022-07-25T04:52:28.288Z,22.16
2022-07-25T04:53:28.303Z,22.19
2022-07-25T04:54:28.272Z,22.27
2022-07-25T04:55:28.262Z,22.32
2022-07-25T04:56:28.252Z,22.27
2022-07-25T04:57:28.238Z,22.39
2022-07-25T04:58:28.245Z,22.34
2022-07-25T04:59:28.215Z,22.53
2022-07-25T05:00:28.205Z,22.59
2022-07-25T05:01:28.280Z,22.60
2022-07-25T05:02:28.247Z,22.72
2022-07-25T05:03:28.185Z,22.67
2022-07-25T05:04:28.162Z,22.74
2022-07-25T05:05:28.143Z,22.75
2022-07-25T05:06:28.151Z,22.84
2022-07-25T05:07:28.118Z,22.94
2022-07-25T05:08:28.132Z,23.01
2022-07-25T05:09:28.105Z,23.11
2022-07-25T05:10:28.086Z,23.07
2022-07-25T05:11:28.082Z,23.26
2022-07-25T05:12:28.072Z,23.35
2022-07-25T05:13:28.078Z,23.52
2022-07-25T05:14:28.048Z,23.57
2022-07-25T05:15:28.030Z,23.58
2022-07-25T05:16:28.092Z,23.62
2022-07-25T05:17:28.007Z,23.72
2022-07-25T05:18:28.014Z,23.80
2022-07-25T05:19:27.987Z,23.85
2022-07-25T05:20:27.980Z,23.85
2022-07-25T05:21:27.972Z,23.85
2022-07-25T05:22:29.085Z,23.94
2022-07-25T05:23:27.961Z,23.89
2022-07-25T05:24:27.937Z,23.95
2022-07-25T05:25:27.926Z,23.92
2022-07-25T05:26:27.905Z,24.00
2022-07-25T05:27:27.894Z,23.97
2022-07-25T05:28:27.905Z,24.05
2022-07-25T05:29:27.882Z,24.04
2022-07-25T05:30:27.864Z,24.08
2022-07-25T05:31:27.914Z,24.01
2022-07-25T05:32:27.842Z,24.07
2022-07-25T05:33:27.861Z,24.01
2022-07-25T05:34:27.819Z,24.08
2022-07-25T05:35:27.804Z,24.13
2022-07-25T05:36:27.798Z,24.13
2022-07-25T05:37:27.799Z,24.05
2022-07-25T05:38:27.789Z,24.02
2022-07-25T05:39:27.781Z,24.13
2022-07-25T05:40:27.757Z,24.13
2022-07-25T05:41:27.749Z,24.05
2022-07-25T05:42:27.734Z,24.17
2022-07-25T05:43:27.719Z,24.01
2022-07-25T05:44:27.716Z,24.20
2022-07-25T05:45:27.711Z,24.19
2022-07-25T05:46:27.748Z,24.20
2022-07-25T05:47:27.674Z,24.35
2022-07-25T05:48:27.725Z,24.34
2022-07-25T05:49:27.669Z,24.35
2022-07-25T05:50:27.657Z,24.32
2022-07-25T05:51:27.841Z,24.49
2022-07-25T05:52:27.616Z,24.45
2022-07-25T05:53:27.615Z,24.49
2022-07-25T05:54:27.642Z,24.54
2022-07-25T05:55:27.597Z,24.73
2022-07-25T05:56:27.573Z,24.82
2022-07-25T05:57:27.598Z,24.80
2022-07-25T05:58:29.928Z,24.98
2022-07-25T05:59:27.546Z,24.98
2022-07-25T06:00:27.548Z,25.07
2022-07-25T06:01:27.559Z,25.10
2022-07-25T06:02:27.679Z,25.09
2022-07-25T06:03:27.598Z,25.15
2022-07-25T06:04:27.567Z,25.07
2022-07-25T06:05:27.660Z,25.10
2022-07-25T06:06:27.458Z,25.06
2022-07-25T06:07:27.450Z,25.12
2022-07-25T06:08:27.443Z,25.07
2022-07-25T06:09:27.436Z,25.10
2022-07-25T06:10:27.490Z,25.12
2022-07-25T06:11:27.440Z,25.12
2022-07-25T06:12:27.394Z,25.17
2022-07-25T06:13:27.383Z,25.28
2022-07-25T06:14:27.372Z,25.15
2022-07-25T06:15:27.651Z,25.24
2022-07-25T06:16:27.458Z,25.27
2022-07-25T06:17:32.259Z,25.32
2022-07-25T06:18:28.328Z,25.35
2022-07-25T06:19:27.330Z,25.49
2022-07-25T06:20:27.389Z,25.49
2022-07-25T06:21:27.302Z,25.57
2022-07-25T06:22:27.310Z,25.54
2022-07-25T06:23:27.695Z,25.59
2022-07-25T06:24:27.260Z,25.53
2022-07-25T06:25:27.248Z,25.54
2022-07-25T06:26:27.243Z,25.47
2022-07-25T06:27:29.356Z,25.49
2022-07-25T06:28:27.223Z,25.49
2022-07-25T06:29:27.222Z,25.71
2022-07-25T06:30:27.198Z,25.79
2022-07-25T06:31:27.248Z,25.94
2022-07-25T06:32:27.179Z,25.98
2022-07-25T06:33:27.179Z,26.21
2022-07-25T06:34:28.896Z,26.32
2022-07-25T06:35:27.144Z,26.57
2022-07-25T06:36:32.162Z,26.80
2022-07-25T06:37:28.116Z,27.01
2022-07-25T06:38:27.134Z,27.21
2022-07-25T06:39:27.122Z,27.42
2022-07-25T06:40:27.091Z,27.46
2022-07-25T06:41:27.073Z,27.33
2022-07-25T06:42:27.065Z,27.57
2022-07-25T06:43:27.058Z,27.54
2022-07-25T06:44:27.049Z,27.69
2022-07-25T06:45:27.036Z,27.80
2022-07-25T06:46:27.046Z,27.92
2022-07-25T06:47:29.813Z,27.86
2022-07-25T06:48:28.028Z,27.88
2022-07-25T06:49:26.999Z,28.09
2022-07-25T06:50:26.981Z,27.91
2022-07-25T06:51:26.962Z,27.98
2022-07-25T06:52:26.957Z,27.94
2022-07-25T06:53:26.945Z,28.06
2022-07-25T06:54:26.964Z,27.96
2022-07-25T06:55:26.918Z,27.86
2022-07-25T06:56:26.912Z,27.94
2022-07-25T06:57:26.897Z,27.99
2022-07-25T06:58:26.890Z,28.17
2022-07-25T06:59:26.900Z,28.04
2022-07-25T07:00:26.970Z,27.94
2022-07-25T07:01:27.017Z,27.91
2022-07-25T07:02:26.844Z,27.84
2022-07-25T07:03:26.969Z,27.84
2022-07-25T07:04:26.822Z,27.70
2022-07-25T07:05:26.820Z,27.57
2022-07-25T07:06:26.801Z,27.53
2022-07-25T07:07:26.791Z,27.50
2022-07-25T07:08:26.782Z,27.57
2022-07-25T07:09:26.772Z,27.58
2022-07-25T07:10:26.775Z,27.58
2022-07-25T07:11:26.742Z,27.48
2022-07-25T07:12:26.732Z,27.51
2022-07-25T07:13:26.731Z,27.58
2022-07-25T07:14:26.713Z,27.69
2022-07-25T07:15:26.699Z,27.73
2022-07-25T07:16:26.823Z,27.66
2022-07-25T07:17:26.680Z,27.77
2022-07-25T07:18:26.665Z,27.77
2022-07-25T07:19:26.659Z,27.88
2022-07-25T07:20:26.651Z,27.98
2022-07-25T07:21:26.661Z,27.99
2022-07-25T07:22:26.621Z,28.16
2022-07-25T07:23:26.611Z,28.13
2022-07-25T07:24:26.607Z,28.13
2022-07-25T07:25:28.573Z,28.23
2022-07-25T07:26:26.619Z,28.22
2022-07-25T07:27:26.567Z,28.41
2022-07-25T07:28:26.554Z,28.50
2022-07-25T07:29:26.556Z,28.58
2022-07-25T07:30:44.173Z,28.70
2022-07-25T07:31:27.680Z,28.84
2022-07-25T07:32:26.518Z,29.03
2022-07-25T07:33:26.511Z,29.25
2022-07-25T07:34:26.488Z,29.28
2022-07-25T07:35:27.458Z,29.41
2022-07-25T07:36:26.468Z,29.45
2022-07-25T07:37:27.872Z,29.43
2022-07-25T07:38:26.444Z,29.31
2022-07-25T07:39:26.448Z,29.22
2022-07-25T07:40:26.424Z,29.23
2022-07-25T07:41:26.421Z,29.34
2022-07-25T07:42:26.402Z,29.41
2022-07-25T07:43:29.858Z,29.38
2022-07-25T07:44:26.388Z,29.47
2022-07-25T07:45:26.372Z,29.43
2022-07-25T07:46:26.429Z,29.52
2022-07-25T07:47:26.349Z,29.56
2022-07-25T07:48:26.360Z,29.57
2022-07-25T07:49:26.404Z,29.78
2022-07-25T07:50:26.320Z,29.78
2022-07-25T07:51:26.305Z,29.78
2022-07-25T07:52:26.302Z,29.84
2022-07-25T07:53:26.309Z,29.93
2022-07-25T07:54:26.271Z,30.14
2022-07-25T07:55:26.269Z,30.21
2022-07-25T07:56:26.258Z,30.34
2022-07-25T07:57:26.249Z,30.33
2022-07-25T07:58:26.242Z,30.45
2022-07-25T07:59:26.229Z,30.43
2022-07-25T08:00:26.214Z,30.57
2022-07-25T08:01:26.228Z,30.61
2022-07-25T08:02:26.250Z,30.50
2022-07-25T08:03:26.232Z,30.46
2022-07-25T08:04:26.274Z,30.38
2022-07-25T08:05:26.157Z,30.38
2022-07-25T08:06:26.145Z,30.34
2022-07-25T08:07:26.140Z,30.34
2022-07-25T08:08:30.953Z,30.18
2022-07-25T08:09:27.117Z,30.24
2022-07-25T08:10:26.110Z,30.21
2022-07-25T08:11:26.096Z,30.30
2022-07-25T08:12:26.084Z,30.26
2022-07-25T08:13:26.090Z,30.30
2022-07-25T08:14:26.062Z,30.36
2022-07-25T08:15:26.051Z,30.36
2022-07-25T08:16:26.142Z,30.34
2022-07-25T08:17:28.595Z,30.37
2022-07-25T08:18:26.034Z,30.34
2022-07-25T08:19:26.002Z,30.31
2022-07-25T08:20:38.107Z,30.29
2022-07-25T08:21:27.177Z,30.27
2022-07-25T08:22:25.978Z,30.43
2022-07-25T08:23:25.987Z,30.27
2022-07-25T08:24:25.947Z,30.30
2022-07-25T08:25:25.943Z,30.40
2022-07-25T08:26:25.932Z,30.34
2022-07-25T08:27:25.923Z,30.45
2022-07-25T08:28:25.905Z,30.53
2022-07-25T08:29:28.237Z,30.38
2022-07-25T08:30:25.889Z,30.45
2022-07-25T08:31:25.940Z,30.38
2022-07-25T08:32:25.927Z,30.43
2022-07-25T08:33:25.851Z,30.40
2022-07-25T08:34:25.856Z,30.33
2022-07-25T08:35:25.838Z,30.29
2022-07-25T08:36:25.823Z,30.30
2022-07-25T08:37:25.816Z,30.23
2022-07-25T08:38:25.803Z,30.14
2022-07-25T08:39:25.821Z,30.23
2022-07-25T08:40:25.772Z,29.99
2022-07-25T08:41:25.774Z,30.03
2022-07-25T08:42:25.764Z,30.09
2022-07-25T08:43:25.753Z,30.05
2022-07-25T08:44:25.738Z,29.96
2022-07-25T08:45:25.734Z,29.89
2022-07-25T08:46:25.812Z,29.90
2022-07-25T08:47:25.698Z,29.84
2022-07-25T08:48:25.887Z,29.84
2022-07-25T08:49:25.683Z,29.79
2022-07-25T08:50:25.703Z,29.86
2022-07-25T08:51:25.665Z,29.87
2022-07-25T08:52:25.643Z,29.93
2022-07-25T08:53:34.283Z,29.89
2022-07-25T08:54:26.630Z,29.93
2022-07-25T08:55:25.631Z,29.94
2022-07-25T08:56:25.598Z,29.94
2022-07-25T08:57:25.594Z,30.07
2022-07-25T08:58:25.585Z,30.02
2022-07-25T08:59:25.574Z,30.03
2022-07-25T09:00:25.576Z,30.12
2022-07-25T09:01:25.582Z,30.11
2022-07-25T09:02:25.717Z,30.15
2022-07-25T09:03:25.591Z,30.08
2022-07-25T09:04:25.520Z,30.15
2022-07-25T09:05:25.501Z,30.11
2022-07-25T09:06:25.506Z,30.23
2022-07-25T09:07:25.490Z,30.34
2022-07-25T09:09:56.280Z,30.98
2022-07-25T09:10:35.277Z,31.17
2022-07-25T09:12:50.442Z,31.85
2022-07-25T09:13:45.053Z,32.27
2022-07-25T09:14:45.039Z,32.98
2022-07-25T09:15:45.126Z,33.71
2022-07-25T09:16:45.287Z,34.29
2022-07-25T09:17:45.013Z,34.69
2022-07-25T09:18:45.003Z,34.91
2022-07-25T09:19:45.017Z,35.02
2022-07-25T09:20:44.992Z,34.89
2022-07-25T09:21:45.681Z,34.92
2022-07-25T09:22:44.973Z,34.98
2022-07-25T09:23:44.959Z,35.02
2022-07-25T09:24:44.965Z,34.92
2022-07-25T09:25:44.927Z,34.77
2022-07-25T09:26:44.939Z,34.80
2022-07-25T09:27:44.916Z,34.70
2022-07-25T09:28:44.905Z,34.73
2022-07-25T09:29:44.911Z,34.69
2022-07-25T09:30:44.925Z,34.74
2022-07-25T09:31:44.932Z,34.61
2022-07-25T09:32:44.901Z,34.95
2022-07-25T09:33:44.898Z,35.30
2022-07-25T09:34:44.857Z,35.60
2022-07-25T09:35:44.833Z,36.17
2022-07-25T09:36:44.852Z,36.60
2022-07-25T09:37:44.809Z,37.10
2022-07-25T09:38:44.799Z,37.46
2022-07-25T09:39:46.956Z,37.66
2022-07-25T09:40:44.775Z,37.51
2022-07-25T09:41:44.783Z,37.17
2022-07-25T09:42:44.756Z,36.90
2022-07-25T09:47:14.148Z,35.95
2022-07-25T09:48:14.147Z,35.69
2022-07-25T09:49:14.193Z,35.36
2022-07-25T09:50:14.108Z,35.25
2022-07-25T09:51:14.106Z,34.81
2022-07-25T09:52:14.100Z,34.70
2022-07-25T09:53:14.100Z,34.51
2022-07-25T09:54:14.074Z,34.31
2022-07-25T09:55:14.072Z,34.13
2022-07-25T09:56:14.058Z,33.80
2022-07-25T09:57:14.042Z,33.68
2022-07-25T09:58:14.047Z,33.45
2022-07-25T09:59:14.032Z,33.11
2022-07-25T10:00:19.214Z,32.88
2022-07-25T10:01:15.058Z,32.74
2022-07-25T10:02:14.009Z,32.51
2022-07-25T10:03:13.995Z,32.29
2022-07-25T10:04:13.971Z,32.17
2022-07-25T10:05:13.960Z,31.95
2022-07-25T10:06:13.947Z,31.88
2022-07-25T10:07:13.944Z,31.76
2022-07-25T10:08:13.948Z,31.55
2022-07-25T10:09:13.923Z,31.45
2022-07-25T10:10:13.906Z,31.15
2022-07-25T10:11:13.902Z,30.99
2022-07-25T10:12:13.890Z,30.81
2022-07-25T10:13:13.890Z,30.56
2022-07-25T10:14:13.874Z,30.26
2022-07-25T10:15:13.857Z,30.11
2022-07-25T10:16:13.847Z,30.07
2022-07-25T10:17:13.855Z,29.99
2022-07-25T10:18:13.852Z,29.81
2022-07-25T10:19:13.819Z,29.65
2022-07-25T10:20:13.808Z,29.50
2022-07-25T10:24:43.873Z,29.00
2022-07-25T10:25:47.248Z,28.82
2022-07-25T10:26:44.174Z,28.77
2022-07-25T10:27:43.187Z,28.72
2022-07-25T10:28:43.177Z,28.63
2022-07-25T10:29:43.141Z,28.56
2022-07-25T10:30:43.260Z,28.51
2022-07-25T10:31:49.289Z,28.47
2022-07-25T10:32:44.112Z,28.53
2022-07-25T10:33:43.115Z,28.56
2022-07-25T10:34:43.092Z,28.35
2022-07-25T10:35:43.084Z,28.38
2022-07-25T10:36:43.073Z,28.33
2022-07-25T10:37:48.683Z,28.31
2022-07-25T10:38:44.071Z,28.36
2022-07-25T10:39:43.043Z,28.29
2022-07-25T10:40:43.025Z,28.40
2022-07-25T10:41:43.021Z,28.73
2022-07-25T10:42:43.007Z,29.38
2022-07-25T10:43:48.177Z,29.47
2022-07-25T10:44:43.983Z,29.56
2022-07-25T10:45:43.073Z,29.56
2022-07-25T10:46:43.101Z,29.65
2022-07-25T10:47:42.967Z,29.55
2022-07-25T10:48:42.980Z,29.52
2022-07-25T10:50:00.049Z,29.44
2022-07-25T10:50:55.432Z,29.37
2022-07-25T10:51:43.908Z,29.37
2022-07-25T10:52:42.905Z,29.25
2022-07-25T10:53:42.911Z,29.23
2022-07-25T10:54:42.885Z,29.11
2022-07-25T10:55:42.864Z,28.95
2022-07-25T10:56:42.861Z,28.96
2022-07-25T10:58:07.910Z,29.04
2022-07-25T10:58:43.883Z,28.93
2022-07-25T10:59:42.828Z,28.91
2022-07-25T11:00:42.812Z,29.10
2022-07-25T11:01:42.914Z,29.20
2022-07-25T11:02:42.831Z,29.20
2022-07-25T11:03:42.779Z,29.29
2022-07-25T11:04:42.792Z,29.40
2022-07-25T11:05:42.771Z,29.26
2022-07-25T11:06:42.749Z,29.45
2022-07-25T11:07:58.590Z,29.44
2022-07-25T11:08:43.761Z,29.59
2022-07-25T11:09:42.716Z,29.79
2022-07-25T11:10:42.711Z,29.89
2022-07-25T11:11:42.704Z,30.07
2022-07-25T11:12:42.685Z,30.15
2022-07-25T11:13:42.680Z,30.37
2022-07-25T11:14:42.740Z,30.49
2022-07-25T11:15:42.661Z,30.57
2022-07-25T11:16:42.718Z,30.61
2022-07-25T11:17:42.630Z,30.56
2022-07-25T11:18:42.622Z,30.54
2022-07-25T11:19:42.622Z,30.61
2022-07-25T11:20:42.613Z,30.57
2022-07-25T11:21:42.596Z,30.61
2022-07-25T11:22:42.579Z,30.52
2022-07-25T11:23:42.572Z,30.52
2022-07-25T11:24:42.576Z,30.61
2022-07-25T11:25:42.550Z,30.62
2022-07-25T11:26:42.536Z,30.71
2022-07-25T11:27:42.535Z,30.62
2022-07-25T11:28:42.533Z,30.64
2022-07-25T11:29:42.536Z,30.61
2022-07-25T11:30:42.497Z,30.47
2022-07-25T11:31:42.535Z,30.57
2022-07-25T11:32:42.491Z,30.47
2022-07-25T11:33:42.469Z,30.52
2022-07-25T11:34:42.475Z,30.36
2022-07-25T11:35:42.452Z,30.38
2022-07-25T11:36:42.431Z,30.23
2022-07-25T11:37:42.421Z,30.02
2022-07-25T11:38:42.411Z,30.03
2022-07-25T11:39:42.405Z,29.90
2022-07-25T11:40:42.409Z,29.96
2022-07-25T11:41:42.376Z,29.87
2022-07-25T11:42:42.378Z,29.86
2022-07-25T11:43:42.364Z,29.94
2022-07-25T11:44:47.464Z,29.93
2022-07-25T11:45:43.376Z,29.92
2022-07-25T11:46:42.336Z,29.99
2022-07-25T11:47:42.321Z,30.14
2022-07-25T11:48:42.347Z,30.14
2022-07-25T11:49:42.301Z,30.21
2022-07-25T11:50:42.296Z,30.37
2022-07-25T11:51:42.272Z,30.46
2022-07-25T11:52:42.262Z,30.54
2022-07-25T11:53:42.257Z,30.67
2022-07-25T11:54:42.244Z,30.61
2022-07-25T11:55:42.263Z,30.67
2022-07-25T11:56:43.498Z,30.78
2022-07-25T11:57:42.218Z,30.76
2022-07-25T11:58:42.201Z,31.04
2022-07-25T11:59:42.186Z,31.04
2022-07-25T12:00:42.215Z,31.15
2022-07-25T12:01:42.178Z,31.08
2022-07-25T12:02:42.290Z,31.02
2022-07-25T12:03:42.332Z,30.93
2022-07-25T12:04:42.145Z,30.87
2022-07-25T12:05:42.152Z,30.74
2022-07-25T12:06:42.122Z,30.50
2022-07-25T12:07:42.102Z,30.49
2022-07-25T12:08:42.099Z,30.46
2022-07-25T12:09:42.088Z,30.38
2022-07-25T12:10:42.086Z,30.38
2022-07-25T12:11:42.078Z,30.37
2022-07-25T12:12:42.050Z,30.36
2022-07-25T12:13:42.043Z,30.33
2022-07-25T12:14:42.041Z,30.31
2022-07-25T12:15:42.025Z,30.43
2022-07-25T12:16:42.119Z,30.34
2022-07-25T12:17:42.005Z,30.43
2022-07-25T12:18:41.988Z,30.33
2022-07-25T12:19:41.986Z,30.33
2022-07-25T12:20:41.975Z,30.30
2022-07-25T12:21:41.987Z,30.31
2022-07-25T12:22:41.953Z,30.30
2022-07-25T12:23:41.942Z,30.37
2022-07-25T12:24:41.927Z,30.31
2022-07-25T12:25:41.918Z,30.29
2022-07-25T12:26:41.901Z,30.27
2022-07-25T12:27:41.904Z,30.29
2022-07-25T12:28:41.890Z,30.36
2022-07-25T12:29:41.869Z,30.30
2022-07-25T12:30:41.905Z,30.26
2022-07-25T12:31:41.852Z,30.31
2022-07-25T12:32:41.868Z,30.27
2022-07-25T12:33:41.828Z,30.23
2022-07-25T12:34:41.817Z,30.27
2022-07-25T12:35:41.814Z,30.23
2022-07-25T12:36:41.805Z,30.33
2022-07-25T12:37:41.799Z,30.23
2022-07-25T12:38:41.790Z,30.30
2022-07-25T12:39:41.762Z,30.30
2022-07-25T12:40:41.757Z,30.31
2022-07-25T12:41:41.750Z,30.38
2022-07-25T12:42:41.741Z,30.50
2022-07-25T12:43:41.765Z,30.57
2022-07-25T12:44:41.719Z,30.67
2022-07-25T12:45:41.738Z,30.57
2022-07-25T12:46:47.228Z,30.59
2022-07-25T12:47:42.684Z,30.54
2022-07-25T12:48:41.725Z,30.59
2022-07-25T12:49:41.710Z,30.67
2022-07-25T12:50:41.651Z,30.53
2022-07-25T12:51:41.646Z,30.31
2022-07-25T12:52:41.682Z,30.23
2022-07-25T12:53:42.664Z,30.19
2022-07-25T12:54:41.606Z,30.23
2022-07-25T12:55:41.622Z,30.18
2022-07-25T12:56:41.591Z,30.19
2022-07-25T12:57:41.586Z,30.09
2022-07-25T12:58:41.577Z,30.14
2022-07-25T12:59:41.563Z,30.08
2022-07-25T13:00:41.543Z,30.15
2022-07-25T13:01:41.668Z,30.15